Time;durP1;ratioP1;P1;durP2;ratioP2;P2;SDS_P1;SDS_P2;PMS_P1;PMS_P2;Temp;Humidity;BMP_temperature;BMP_pressure;BME280_temperature;BME280_humidity;BME280_pressure;Samples;Min_cycle;Max_cycle;Signal;HPM_P1;HPM_P2
2022/09/22 03:58:46;;;;;;;1.13;0.73;;;;;;;-145.06;100.00;60892.56;5910144;23;20108;-90
2022/09/22 04:01:25;;;;;;;1.05;0.77;;;;;;;-145.06;100.00;60892.56;5909870;23;20295;-91
2022/09/22 04:04:04;;;;;;;1.10;0.60;;;;;;;-145.06;100.00;60892.56;5908005;23;20449;-90
2022/09/22 04:06:43;;;;;;;1.42;0.80;;;;;;;-145.06;100.00;60892.56;5908922;23;20006;-90
2022/09/22 04:09:22;;;;;;;1.48;0.90;;;;;;;-145.06;100.00;60892.56;5907591;23;20006;-89
2022/09/22 04:12:01;;;;;;;0.90;0.70;;;;;;;-145.06;100.00;60892.56;5906581;23;20006;-92
2022/09/22 04:14:43;;;;;;;1.35;0.80;;;;;;;-145.06;100.00;60892.56;5910068;23;20010;-92
2022/09/22 04:17:22;;;;;;;1.35;0.77;;;;;;;-145.06;100.00;60892.56;5911167;23;20441;-93
2022/09/22 04:20:03;;;;;;;1.13;0.82;;;;;;;-145.06;100.00;60892.56;5909823;23;20006;-92
2022/09/22 04:22:42;;;;;;;0.90;0.70;;;;;;;-145.06;100.00;60892.56;5908864;23;20256;-91
2022/09/22 04:25:21;;;;;;;2.25;0.90;;;;;;;-145.06;100.00;60892.56;5908004;23;20006;-92
2022/09/22 04:28:00;;;;;;;1.40;0.73;;;;;;;-145.06;100.00;60892.56;5909328;23;20010;-92
2022/09/22 04:30:39;;;;;;;1.53;1.00;;;;;;;-145.06;100.00;60892.56;5909954;23;20314;-92
2022/09/22 04:33:18;;;;;;;1.10;0.70;;;;;;;-145.06;100.00;60892.56;5909701;23;20425;-91
2022/09/22 04:35:57;;;;;;;1.08;0.80;;;;;;;-145.06;100.00;60892.56;5910022;23;20010;-90
2022/09/22 04:38:36;;;;;;;1.10;0.70;;;;;;;-145.06;100.00;60892.56;5909752;23;20010;-91
2022/09/22 04:41:15;;;;;;;0.75;0.63;;;;;;;-145.06;100.00;60892.56;5909887;23;20005;-92
2022/09/22 04:43:54;;;;;;;1.20;0.80;;;;;;;-145.06;100.00;60892.56;5910600;23;20014;-92
2022/09/22 04:46:33;;;;;;;0.67;0.53;;;;;;;-145.06;100.00;60892.56;5910111;23;20005;-92
2022/09/22 04:49:12;;;;;;;0.63;0.50;;;;;;;-145.06;100.00;60892.56;5910137;23;20002;-93
2022/09/22 04:51:51;;;;;;;0.70;0.60;;;;;;;-145.06;100.00;60892.56;5910128;23;20013;-91
2022/09/22 04:54:31;;;;;;;0.57;0.57;;;;;;;-145.06;100.00;60892.56;5909276;23;20326;-91
2022/09/22 04:57:10;;;;;;;1.02;0.70;;;;;;;-145.06;100.00;60892.56;5910060;23;20009;-91
2022/09/22 04:59:49;;;;;;;0.60;0.50;;;;;;;-145.06;100.00;60892.56;5910804;23;20006;-91
2022/09/22 05:02:28;;;;;;;1.10;0.80;;;;;;;-145.06;100.00;60892.56;5911722;23;20009;-91
2022/09/22 05:05:07;;;;;;;1.45;0.80;;;;;;;-145.06;100.00;60892.56;5911752;23;20432;-91
2022/09/22 05:07:48;;;;;;;;;;;;;;;-145.06;100.00;60892.56;5912274;23;20014;-90
2022/09/22 05:10:31;;;;;;;0.63;0.50;;;;;;;-145.06;100.00;60892.56;5911487;23;19924;-90
2022/09/22 05:13:12;;;;;;;0.90;0.60;;;;;;;-145.06;100.00;60892.56;5908742;23;20006;-90
2022/09/22 05:15:51;;;;;;;1.05;0.80;;;;;;;-145.06;100.00;60892.56;5944051;23;20018;-91
2022/09/22 05:18:31;;;;;;;0.90;0.70;;;;;;;-145.06;100.00;60892.56;5915494;23;20409;-92
2022/09/22 05:21:10;;;;;;;0.90;0.77;;;;;;;-145.06;100.00;60892.56;5907909;23;20014;-91
2022/09/22 05:23:49;;;;;;;5.55;0.70;;;;;;;-145.06;100.00;60892.56;5905755;23;20241;-91
2022/09/22 05:26:29;;;;;;;0.70;0.60;;;;;;;-145.06;100.00;60892.56;5906355;23;20322;-91
2022/09/22 05:29:09;;;;;;;0.70;0.60;;;;;;;-145.06;100.00;60892.56;5906580;23;20010;-91
2022/09/22 05:31:48;;;;;;;1.20;0.80;;;;;;;-145.06;100.00;60892.56;5906309;23;20010;-90
2022/09/22 05:34:27;;;;;;;1.03;0.70;;;;;;;-145.06;100.00;60892.56;5908516;23;20014;-91
2022/09/22 05:37:06;;;;;;;1.40;0.77;;;;;;;-145.06;100.00;60892.56;5910331;23;20255;-91
2022/09/22 05:39:44;;;;;;;1.27;0.70;;;;;;;-145.06;100.00;60892.56;5909630;23;20002;-90
2022/09/22 05:42:23;;;;;;;0.90;0.65;;;;;;;-145.06;100.00;60892.56;5908951;23;20014;-92
2022/09/22 05:45:02;;;;;;;0.80;0.60;;;;;;;-145.06;100.00;60892.56;5908933;23;20441;-91
2022/09/22 05:47:42;;;;;;;0.93;0.60;;;;;;;-145.06;100.00;60892.56;5908980;23;20033;-92
2022/09/22 05:50:22;;;;;;;0.90;0.73;;;;;;;-145.06;100.00;60892.56;5908917;23;20006;-92
2022/09/22 05:53:09;;;;;;;1.00;0.70;;;;;;;-145.06;100.00;60892.56;5901378;23;20013;-91
2022/09/22 05:55:48;;;;;;;0.68;0.47;;;;;;;-145.06;100.00;60892.56;5910470;23;20006;-93
2022/09/22 05:58:27;;;;;;;1.15;0.70;;;;;;;-145.06;100.00;60892.56;5911371;23;20014;-92
2022/09/22 06:01:05;;;;;;;2.20;0.70;;;;;;;-145.06;100.00;60892.56;5910454;23;20437;-91
2022/09/22 06:03:44;;;;;;;1.50;0.80;;;;;;;-145.06;100.00;60892.56;5912143;23;20041;-91
2022/09/22 06:06:23;;;;;;;1.52;0.85;;;;;;;-145.06;100.00;60892.56;5911012;23;20093;-92
2022/09/22 06:09:02;;;;;;;1.73;0.80;;;;;;;-145.06;100.00;60892.56;5910624;23;20006;-91
2022/09/22 06:11:41;;;;;;;1.35;0.90;;;;;;;-145.06;100.00;60892.56;5910846;23;20006;-92
2022/09/22 06:14:20;;;;;;;1.02;0.80;;;;;;;-145.06;100.00;60892.56;5910996;23;20149;-92
2022/09/22 06:16:59;;;;;;;0.90;0.63;;;;;;;-145.06;100.00;60892.56;5910187;23;20006;-91
2022/09/22 06:19:39;;;;;;;0.90;0.80;;;;;;;-145.06;100.00;60892.56;5911419;23;20006;-91
2022/09/22 06:22:18;;;;;;;1.25;0.70;;;;;;;-145.06;100.00;60892.56;5911558;23;20300;-92
2022/09/22 06:24:57;;;;;;;0.70;0.60;;;;;;;-145.06;100.00;60892.56;5911074;23;20425;-92
2022/09/22 06:27:36;;;;;;;0.80;0.70;;;;;;;-145.06;100.00;60892.56;5911537;23;20237;-90
2022/09/22 06:30:15;;;;;;;0.80;0.60;;;;;;;-145.06;100.00;60892.56;5911727;23;20006;-91
2022/09/22 06:32:55;;;;;;;0.90;0.50;;;;;;;-145.06;100.00;60892.56;5911144;23;20318;-92
2022/09/22 06:35:36;;;;;;;0.77;0.60;;;;;;;-145.06;100.00;60892.56;5911585;23;20488;-90
2022/09/22 06:38:15;;;;;;;0.40;0.40;;;;;;;-145.06;100.00;60892.56;5911887;23;20006;-91
2022/09/22 06:41:00;;;;;;;0.95;0.60;;;;;;;-145.06;100.00;60892.56;5911521;23;20010;-92
2022/09/22 06:43:41;;;;;;;0.77;0.52;;;;;;;-145.06;100.00;60892.56;5911299;23;20425;-92
2022/09/22 06:46:22;;;;;;;1.20;0.70;;;;;;;-145.06;100.00;60892.56;5911097;23;20010;-93
2022/09/22 06:49:01;;;;;;;0.93;0.77;;;;;;;-145.06;100.00;60892.56;5910776;23;20006;-93
2022/09/22 06:51:40;;;;;;;1.27;0.90;;;;;;;-145.06;100.00;60892.56;5911090;23;20009;-90
2022/09/22 06:54:19;;;;;;;1.08;0.80;;;;;;;-145.06;100.00;60892.56;5911682;23;20006;-90
2022/09/22 06:56:58;;;;;;;1.77;0.90;;;;;;;-145.06;100.00;60892.56;5910977;23;20328;-91
2022/09/22 06:59:37;;;;;;;1.13;0.90;;;;;;;-145.06;100.00;60892.56;5911045;23;20005;-91
2022/09/22 07:02:17;;;;;;;1.10;0.70;;;;;;;-145.06;100.00;60892.56;5911132;23;20014;-91
2022/09/22 07:04:59;;;;;;;0.88;0.77;;;;;;;-145.06;100.00;60892.56;5911483;23;20006;-92
2022/09/22 07:07:38;;;;;;;0.93;0.57;;;;;;;-145.06;100.00;60892.56;5911114;23;20057;-92
2022/09/22 07:10:16;;;;;;;0.90;0.70;;;;;;;-145.06;100.00;60892.56;5911473;23;20006;-91
2022/09/22 07:12:59;;;;;;;0.98;0.60;;;;;;;-145.06;100.00;60892.56;5910895;23;20005;-92
2022/09/22 07:15:38;;;;;;;0.90;0.63;;;;;;;-145.06;100.00;60892.56;5910599;23;20085;-92
2022/09/22 07:18:17;;;;;;;0.68;0.50;;;;;;;-145.06;100.00;60892.56;5910179;23;20038;-91
2022/09/22 07:21:08;;;;;;;1.25;0.68;;;;;;;-145.06;100.00;60892.56;5910653;23;20488;-92
2022/09/22 07:23:48;;;;;;;1.05;0.73;;;;;;;-145.06;100.00;60892.56;5909982;23;20504;-90
2022/09/22 07:26:33;;;;;;;1.50;0.70;;;;;;;-145.06;100.00;60892.56;5909203;23;20322;-92
2022/09/22 07:29:12;;;;;;;1.48;0.70;;;;;;;-145.06;100.00;60892.56;5909505;23;20030;-90
2022/09/22 07:31:52;;;;;;;0.75;0.63;;;;;;;-145.06;100.00;60892.56;5909575;23;20014;-92
2022/09/22 07:34:31;;;;;;;;;;;;;;;-145.06;100.00;60892.56;5910304;23;20006;-91
2022/09/22 07:37:12;;;;;;;0.73;0.63;;;;;;;-145.06;100.00;60892.56;5909757;23;19904;-92
2022/09/22 07:39:51;;;;;;;1.65;0.60;;;;;;;-145.06;100.00;60892.56;5909300;23;20010;-90
2022/09/22 07:42:30;;;;;;;1.48;0.70;;;;;;;-145.06;100.00;60892.56;5909118;23;20013;-93
2022/09/22 07:45:11;;;;;;;0.93;0.68;;;;;;;-145.06;100.00;60892.56;5909548;23;20010;-91
2022/09/22 07:50:59;;;;;;;1.50;0.95;;;;;;;-145.06;100.00;60892.56;5920378;23;20041;-90
2022/09/22 07:53:39;;;;;;;0.95;0.75;;;;;;;-145.06;100.00;60892.56;5909118;23;20468;-90
2022/09/22 07:56:20;;;;;;;0.82;0.60;;;;;;;-145.06;100.00;60892.56;5909233;23;20014;-92
2022/09/22 07:59:03;;;;;;;0.43;0.40;;;;;;;-145.06;100.00;60892.56;5909745;23;20006;-91
2022/09/22 08:01:46;;;;;;;0.40;0.40;;;;;;;-145.06;100.00;60892.56;5909870;23;20014;-91
2022/09/22 08:04:25;;;;;;;1.33;0.60;;;;;;;-145.06;100.00;60892.56;5909632;23;20088;-91
2022/09/22 08:07:04;;;;;;;1.63;0.80;;;;;;;-145.06;100.00;60892.56;5909676;23;20014;-92
2022/09/22 08:09:43;;;;;;;0.82;0.60;;;;;;;-145.06;100.00;60892.56;5909077;23;20002;-91
2022/09/22 08:12:22;;;;;;;0.57;0.50;;;;;;;-145.06;100.00;60892.56;5910256;23;20006;-94
2022/09/22 08:15:00;;;;;;;0.63;0.50;;;;;;;-145.06;100.00;60892.56;5909788;23;20097;-95
2022/09/22 08:17:39;;;;;;;0.50;0.40;;;;;;;-145.06;100.00;60892.56;5909597;23;20006;-92
2022/09/22 08:20:20;;;;;;;0.60;0.50;;;;;;;-145.06;100.00;60892.56;5909452;23;20006;-93
2022/09/22 08:23:03;;;;;;;0.52;0.50;;;;;;;-145.06;100.00;60892.56;5908905;23;20242;-92
2022/09/22 08:25:43;;;;;;;0.43;0.40;;;;;;;-145.06;100.00;60892.56;5910460;23;20006;-94
2022/09/22 08:28:22;;;;;;;0.60;0.50;;;;;;;-145.06;100.00;60892.56;5910204;23;20010;-93
2022/09/22 08:31:02;;;;;;;0.73;0.40;;;;;;;-145.06;100.00;60892.56;5910757;23;20002;-93
2022/09/22 08:33:41;;;;;;;0.40;0.40;;;;;;;-145.06;100.00;60892.56;5912948;23;20088;-91
2022/09/22 08:36:22;;;;;;;1.10;0.55;;;;;;;-145.06;100.00;60892.56;5912368;23;20021;-90
2022/09/22 08:39:03;;;;;;;0.50;0.40;;;;;;;-145.06;100.00;60892.56;5912654;23;20006;-91
2022/09/22 08:42:08;;;;;;;0.60;0.50;;;;;;;-145.06;100.00;60892.56;5912343;23;20006;-90
2022/09/22 08:45:09;;;;;;;0.47;0.30;;;;;;;-145.06;100.00;60892.56;5912448;23;20010;-93
2022/09/22 08:53:55;;;;;;;0.32;0.30;;;;;;;-145.06;100.00;60892.56;5922955;23;20010;-91
2022/09/22 08:56:40;;;;;;;0.50;0.50;;;;;;;-145.06;100.00;60892.56;5911903;23;20096;-91
2022/09/22 08:59:22;;;;;;;0.40;0.35;;;;;;;-145.06;100.00;60892.56;5912542;23;20010;-92
2022/09/22 09:02:18;;;;;;;0.40;0.40;;;;;;;-145.06;100.00;60892.56;5912911;23;20009;-90
2022/09/22 09:05:22;;;;;;;1.10;0.45;;;;;;;-145.06;100.00;60892.56;5912415;23;20085;-91
2022/09/22 09:08:28;;;;;;;0.50;0.45;;;;;;;-145.06;100.00;60892.56;5891532;23;20006;-92
2022/09/22 09:11:47;;;;;;;0.50;0.40;;;;;;;-145.06;100.00;60892.56;5912690;23;20010;-91
2022/09/22 09:14:46;;;;;;;0.53;0.50;;;;;;;-145.06;100.00;60892.56;5912601;23;19998;-92
2022/09/22 09:17:31;;;;;;;0.50;0.30;;;;;;;-145.06;100.00;60892.56;5912264;23;20002;-91
2022/09/22 09:20:37;;;;;;;1.95;0.50;;;;;;;-145.06;100.00;60892.56;5912551;23;20323;-92
2022/09/22 09:23:21;;;;;;;0.50;0.30;;;;;;;-145.06;100.00;60892.56;5912337;23;20010;-91
2022/09/22 09:26:01;;;;;;;0.90;0.40;;;;;;;-145.06;100.00;60892.56;5912007;23;20010;-91
2022/09/22 09:28:56;;;;;;;0.38;0.30;;;;;;;-145.06;100.00;60892.56;5912046;23;20010;-92
2022/09/22 09:31:42;;;;;;;0.40;0.38;;;;;;;-145.06;100.00;60892.56;5911623;23;20429;-93
2022/09/22 09:34:27;;;;;;;0.55;0.40;;;;;;;-145.06;100.00;60892.56;5911795;23;20005;-93
2022/09/22 09:37:13;;;;;;;1.05;0.50;;;;;;;-145.06;100.00;60892.56;5911764;23;20010;-92
2022/09/22 09:39:53;;;;;;;0.63;0.30;;;;;;;-145.06;100.00;60892.56;5911946;23;19998;-93
2022/09/22 09:42:35;;;;;;;0.52;0.30;;;;;;;-145.06;100.00;60892.56;5911487;23;20429;-93
2022/09/22 09:45:17;;;;;;;0.50;0.40;;;;;;;-145.06;100.00;60892.56;5911402;23;20010;-94
2022/09/22 09:48:25;;;;;;;0.50;0.43;;;;;;;-145.06;100.00;60892.56;5911901;23;20005;-92
2022/09/22 09:51:04;;;;;;;0.50;0.40;;;;;;;-145.06;100.00;60892.56;5911989;23;20005;-93
2022/09/22 09:53:46;;;;;;;0.68;0.50;;;;;;;-145.06;100.00;60892.56;5912134;23;20429;-93
2022/09/22 09:56:27;;;;;;;0.40;0.40;;;;;;;-145.06;100.00;60892.56;5912027;23;20009;-92
2022/09/22 10:02:13;;;;;;;0.30;0.20;;;;;;;-145.06;100.00;60892.56;5922755;23;20010;-93
2022/09/22 10:05:01;;;;;;;0.30;0.30;;;;;;;-145.06;100.00;60892.56;5911407;23;20010;-93
2022/09/22 10:07:45;;;;;;;0.30;0.30;;;;;;;-145.06;100.00;60892.56;5911718;23;20147;-93
2022/09/22 10:10:27;;;;;;;0.40;0.40;;;;;;;-145.06;100.00;60892.56;5911928;23;20156;-93
2022/09/22 10:13:19;;;;;;;0.70;0.30;;;;;;;-145.06;100.00;60892.56;5911306;23;20314;-93
2022/09/22 10:16:02;;;;;;;0.30;0.30;;;;;;;-145.06;100.00;60892.56;5911315;23;20005;-94
2022/09/22 10:18:42;;;;;;;0.80;0.40;;;;;;;-145.06;100.00;60892.56;5911940;23;20010;-94
2022/09/22 10:21:22;;;;;;;0.40;0.30;;;;;;;-145.06;100.00;60892.56;5911430;23;20386;-92
2022/09/22 10:24:21;;;;;;;0.50;0.40;;;;;;;-145.06;100.00;60892.56;5911954;23;20005;-91
2022/09/22 10:27:00;;;;;;;0.40;0.40;;;;;;;-145.06;100.00;60892.56;5911539;23;20010;-93
2022/09/22 10:29:40;;;;;;;0.85;0.30;;;;;;;-145.06;100.00;60892.56;5911752;23;20096;-93
2022/09/22 10:32:20;;;;;;;0.30;0.30;;;;;;;-145.06;100.00;60892.56;5911926;23;20014;-91
2022/09/22 10:34:59;;;;;;;0.43;0.38;;;;;;;-145.06;100.00;60892.56;5911600;23;20006;-93
2022/09/22 10:37:38;;;;;;;;;;;;;;;-145.06;100.00;60892.56;5912355;23;20010;-92
2022/09/22 10:40:20;;;;;;;0.80;0.63;;;;;;;-145.06;100.00;60892.56;5911986;23;19905;-92
2022/09/22 10:43:03;;;;;;;0.52;0.30;;;;;;;-145.06;100.00;60892.56;5911965;23;20242;-93
2022/09/22 10:46:03;;;;;;;0.80;0.50;;;;;;;-145.06;100.00;60892.56;5911701;23;20310;-93
2022/09/22 10:48:49;;;;;;;0.75;0.40;;;;;;;-145.06;100.00;60892.56;5911848;23;20006;-93
2022/09/22 10:51:44;;;;;;;0.50;0.30;;;;;;;-145.06;100.00;60892.56;5911875;23;20002;-93
2022/09/22 10:54:40;;;;;;;0.47;0.40;;;;;;;-145.06;100.00;60892.56;5911272;23;20314;-93
2022/09/22 10:57:29;;;;;;;0.20;0.20;;;;;;;-145.06;100.00;60892.56;5912134;23;20093;-92
2022/09/22 11:00:18;;;;;;;0.30;0.30;;;;;;;-145.06;100.00;60892.56;5911612;23;20492;-93
2022/09/22 11:03:10;;;;;;;0.30;0.20;;;;;;;-145.06;100.00;60892.56;5911215;23;20005;-93
2022/09/22 11:12:36;;;;;;;0.30;0.30;;;;;;;-145.06;100.00;60892.56;5922362;23;20006;-93
2022/09/22 11:15:47;;;;;;;0.20;0.20;;;;;;;-145.06;100.00;60892.56;5910876;23;20029;-93
2022/09/22 11:18:37;;;;;;;0.57;0.30;;;;;;;-145.06;100.00;60892.56;5911972;23;19998;-94
2022/09/22 11:21:35;;;;;;;0.50;0.20;;;;;;;-145.06;100.00;60892.56;5911048;23;19998;-92
2022/09/22 11:24:37;;;;;;;0.28;0.20;;;;;;;-145.06;100.00;60892.56;5911459;23;20014;-92
2022/09/22 11:27:38;;;;;;;0.40;0.30;;;;;;;-145.06;100.00;60892.56;5910721;23;20009;-92
2022/09/22 11:30:21;;;;;;;0.20;0.20;;;;;;;-145.06;100.00;60892.56;5911685;23;20409;-93
2022/09/22 11:33:33;;;;;;;0.28;0.25;;;;;;;-145.06;100.00;60892.56;5911071;23;20422;-94
2022/09/22 11:36:27;;;;;;;0.15;0.10;;;;;;;-145.06;100.00;60892.56;5910489;23;20460;-93
2022/09/22 11:39:17;;;;;;;0.25;0.20;;;;;;;-145.06;100.00;60892.56;5910904;23;20302;-92
2022/09/22 11:42:12;;;;;;;0.30;0.28;;;;;;;-145.06;100.00;60892.56;5911314;23;20014;-91
2022/09/22 11:45:06;;;;;;;0.20;0.20;;;;;;;-145.06;100.00;60892.56;5911188;23;20006;-93
2022/09/22 11:48:23;;;;;;;0.50;0.35;;;;;;;-145.06;100.00;60892.56;5911753;23;20005;-94
2022/09/22 11:51:33;;;;;;;0.65;0.30;;;;;;;-145.06;100.00;60892.56;5911044;23;20002;-93
2022/09/22 11:54:26;;;;;;;0.35;0.20;;;;;;;-145.06;100.00;60892.56;5911424;23;20247;-95
2022/09/22 11:57:08;;;;;;;0.20;0.20;;;;;;;-145.06;100.00;60892.56;5910680;23;20661;-93
2022/09/22 11:59:47;;;;;;;0.20;0.20;;;;;;;-145.06;100.00;60892.56;5910749;23;20302;-95
2022/09/22 12:02:30;;;;;;;0.20;0.20;;;;;;;-145.06;100.00;60892.56;5911541;23;20014;-94
2022/09/22 12:05:24;;;;;;;0.20;0.20;;;;;;;-145.06;100.00;60892.56;5910446;23;20310;-95
2022/09/22 12:08:34;;;;;;;0.20;0.20;;;;;;;-145.06;100.00;60892.56;5911099;23;20006;-94
2022/09/22 12:11:15;;;;;;;;;;;;;;;-145.06;100.00;60892.56;5911526;23;20006;-93
2022/09/22 12:13:56;;;;;;;0.20;0.20;;;;;;;-145.06;100.00;60892.56;5910792;23;19905;-94
2022/09/22 12:17:00;;;;;;;0.10;0.10;;;;;;;-145.06;100.00;60892.56;5910795;23;20017;-93
2022/09/22 12:19:42;;;;;;;0.25;0.15;;;;;;;-145.06;100.00;60892.56;5910821;23;20005;-94
2022/09/22 13:26:12;;;;;;;5.57;4.38;;;;;;;-145.06;100.00;60892.56;5918507;23;20025;-95
2022/09/22 13:29:10;;;;;;;2.95;2.53;;;;;;;-145.06;100.00;60892.56;5911426;23;20006;-95
2022/09/22 13:31:57;;;;;;;2.03;1.70;;;;;;;-145.06;100.00;60892.56;5913742;23;19997;-96
2022/09/22 17:08:02;;;;;;;0.43;0.22;;;;;;;-145.06;100.00;60892.56;5924017;23;20795;-93
2022/09/22 17:58:26;;;;;;;0.40;0.32;;;;;;;-145.06;100.00;60892.56;5921837;23;20326;-91
2022/09/22 18:15:19;;;;;;;0.75;0.55;;;;;;;-145.06;100.00;60892.56;5884814;23;20234;-92
2022/09/22 18:17:58;;;;;;;0.60;0.35;;;;;;;-145.06;100.00;60892.56;5886184;23;20073;-91
2022/09/22 18:20:43;;;;;;;0.75;0.50;;;;;;;-145.06;100.00;60892.56;5883740;23;20413;-92
2022/09/22 18:23:42;;;;;;;0.40;0.30;;;;;;;-145.06;100.00;60892.56;5884702;23;20002;-94
2022/09/22 18:26:22;;;;;;;0.63;0.40;;;;;;;-145.06;100.00;60892.56;5895989;23;20037;-89
2022/09/22 18:29:01;;;;;;;;;;;;;;;-145.06;100.00;60892.56;5940555;23;20014;-92
2022/09/22 18:31:41;;;;;;;0.20;0.20;;;;;;;-145.06;100.00;60892.56;5938835;23;19904;-92
2022/09/22 18:34:21;;;;;;;0.50;0.40;;;;;;;-145.06;100.00;60892.56;5939078;23;20084;-93
2022/09/22 18:37:02;;;;;;;0.40;0.30;;;;;;;-145.06;100.00;60892.56;5939226;23;20009;-92
2022/09/22 18:39:46;;;;;;;0.52;0.38;;;;;;;-145.06;100.00;60892.56;5939954;23;20006;-91
2022/09/22 18:42:26;;;;;;;0.88;0.60;;;;;;;-145.06;100.00;60892.56;5940623;23;20005;-92
2022/09/22 18:45:06;;;;;;;0.50;0.50;;;;;;;-145.06;100.00;60892.56;5940036;23;20010;-91
2022/09/22 18:47:45;;;;;;;;;;;;;;;-145.06;100.00;60892.56;5940736;23;20006;-93
2022/09/22 18:50:24;;;;;;;0.40;0.30;;;;;;;-145.06;100.00;60892.56;5940114;23;19905;-94
2022/09/22 18:53:03;;;;;;;0.40;0.30;;;;;;;-145.06;100.00;60892.56;5939884;23;20237;-92
2022/09/22 18:55:42;;;;;;;0.40;0.40;;;;;;;-145.06;100.00;60892.56;5939509;23;20022;-93
2022/09/22 18:58:21;;;;;;;0.50;0.40;;;;;;;-145.06;100.00;60892.56;5940250;23;20436;-92
2022/09/22 19:01:00;;;;;;;0.87;0.50;;;;;;;-145.06;100.00;60892.56;5940196;23;20009;-94
2022/09/22 19:03:40;;;;;;;0.65;0.40;;;;;;;-145.06;100.00;60892.56;5939983;23;20245;-93
2022/09/22 19:06:22;;;;;;;0.57;0.45;;;;;;;-145.06;100.00;60892.56;5939828;23;20009;-93
2022/09/22 19:09:04;;;;;;;0.30;0.30;;;;;;;-145.06;100.00;60892.56;5940109;23;20006;-93
2022/09/22 19:12:07;;;;;;;0.98;0.50;;;;;;;-145.06;100.00;60892.56;5939012;23;20005;-92
2022/09/22 19:14:46;;;;;;;0.68;0.40;;;;;;;-145.06;100.00;60892.56;5938752;23;20321;-93
2022/09/22 19:17:26;;;;;;;0.32;0.30;;;;;;;-145.06;100.00;60892.56;5937947;23;20036;-93
2022/09/22 19:20:13;;;;;;;0.77;0.60;;;;;;;-145.06;100.00;60892.56;5938421;23;20349;-93
2022/09/22 19:22:52;;;;;;;0.55;0.30;;;;;;;-145.06;100.00;60892.56;5938181;23;20009;-92
2022/09/22 19:25:32;;;;;;;0.93;0.45;;;;;;;-145.06;100.00;60892.56;5937685;23;20495;-92
2022/09/22 19:28:14;;;;;;;0.50;0.35;;;;;;;-145.06;100.00;60892.56;5937425;23;20397;-92
2022/09/22 19:30:53;;;;;;;0.50;0.40;;;;;;;-145.06;100.00;60892.56;5937775;23;20036;-92
2022/09/22 19:33:32;;;;;;;0.43;0.40;;;;;;;-145.06;100.00;60892.56;5937720;23;20033;-91
2022/09/22 19:36:11;;;;;;;0.50;0.38;;;;;;;-145.06;100.00;60892.56;5937210;23;20009;-92
2022/09/22 19:38:50;;;;;;;0.40;0.32;;;;;;;-145.06;100.00;60892.56;5936998;23;20005;-93
2022/09/22 19:41:29;;;;;;;0.68;0.43;;;;;;;-145.06;100.00;60892.56;5935855;23;20239;-92
2022/09/22 19:44:08;;;;;;;0.60;0.43;;;;;;;-145.06;100.00;60892.56;5935552;23;20013;-91
2022/09/22 19:46:48;;;;;;;0.63;0.50;;;;;;;-145.06;100.00;60892.56;5937083;23;20546;-93
2022/09/22 19:49:28;;;;;;;;;;;;;;;-145.06;100.00;60892.56;5940323;23;20002;-95
2022/09/22 19:52:08;;;;;;;1.75;0.30;;;;;;;-145.06;100.00;60892.56;5937805;23;19908;-91
2022/09/22 19:54:47;;;;;;;0.30;0.25;;;;;;;-145.06;100.00;60892.56;5939542;23;20010;-92
2022/09/22 19:57:26;;;;;;;1.15;0.60;;;;;;;-145.06;100.00;60892.56;5939183;23;20317;-92
2022/09/22 20:00:24;;;;;;;0.32;0.32;;;;;;;-145.06;100.00;60892.56;5939669;23;20310;-93
2022/09/22 20:03:03;;;;;;;0.95;0.52;;;;;;;-145.06;100.00;60892.56;5940308;23;20444;-93
2022/09/22 20:05:43;;;;;;;1.17;0.40;;;;;;;-145.06;100.00;60892.56;5939345;23;20001;-93
2022/09/22 20:08:24;;;;;;;0.65;0.30;;;;;;;-145.06;100.00;60892.56;5938978;23;20009;-91
2022/09/22 20:11:03;;;;;;;3.65;0.70;;;;;;;-145.06;100.00;60892.56;5939749;23;20299;-92
2022/09/22 20:16:41;;;;;;;0.60;0.50;;;;;;;-145.06;100.00;60892.56;5949762;23;20237;-92
2022/09/22 20:19:21;;;;;;;0.85;0.50;;;;;;;-145.06;100.00;60892.56;5938796;23;20006;-93
2022/09/22 20:22:18;;;;;;;0.90;0.40;;;;;;;-145.06;100.00;60892.56;5938746;23;20338;-92
2022/09/22 20:25:00;;;;;;;0.50;0.40;;;;;;;-145.06;100.00;60892.56;5938244;23;20006;-92
2022/09/22 20:27:39;;;;;;;0.50;0.40;;;;;;;-145.06;100.00;60892.56;5938040;23;20005;-92
2022/09/22 20:30:18;;;;;;;2.15;0.40;;;;;;;-145.06;100.00;60892.56;5938753;23;20384;-92
2022/09/22 20:32:58;;;;;;;1.03;0.40;;;;;;;-145.06;100.00;60892.56;5939296;23;20009;-92
2022/09/22 20:35:37;;;;;;;0.45;0.30;;;;;;;-145.06;100.00;60892.56;5939066;23;20238;-92
2022/09/22 20:38:17;;;;;;;0.57;0.40;;;;;;;-145.06;100.00;60892.56;5939091;23;20006;-93
2022/09/22 20:40:59;;;;;;;0.30;0.30;;;;;;;-145.06;100.00;60892.56;5938299;23;20006;-94
2022/09/22 20:43:38;;;;;;;0.30;0.30;;;;;;;-145.06;100.00;60892.56;5938532;23;20088;-94
2022/09/22 20:46:17;;;;;;;0.50;0.40;;;;;;;-145.06;100.00;60892.56;5937631;23;20036;-92
2022/09/22 20:48:56;;;;;;;0.20;0.20;;;;;;;-145.06;100.00;60892.56;5936741;23;20002;-91
2022/09/22 20:51:36;;;;;;;0.93;0.40;;;;;;;-145.06;100.00;60892.56;5938201;23;20241;-92
2022/09/22 20:54:15;;;;;;;0.50;0.43;;;;;;;-145.06;100.00;60892.56;5937853;23;20290;-93
2022/09/22 20:56:54;;;;;;;0.60;0.38;;;;;;;-145.06;100.00;60892.56;5938560;23;20088;-93
2022/09/22 20:59:34;;;;;;;0.75;0.30;;;;;;;-145.06;100.00;60892.56;5939009;23;20445;-93
2022/09/22 21:02:23;;;;;;;0.65;0.40;;;;;;;-145.06;100.00;60892.56;5939213;23;20010;-91
2022/09/22 21:05:03;;;;;;;0.95;0.45;;;;;;;-145.06;100.00;60892.56;5938637;23;20397;-93
2022/09/22 21:07:42;;;;;;;0.50;0.40;;;;;;;-145.06;100.00;60892.56;5938741;23;20002;-92
2022/09/22 21:10:33;;;;;;;0.93;0.70;;;;;;;-145.06;100.00;60892.56;5939483;23;20006;-92
2022/09/22 21:13:13;;;;;;;0.80;0.45;;;;;;;-145.06;100.00;60892.56;5938411;23;20010;-93
2022/09/22 21:16:04;;;;;;;0.22;0.22;;;;;;;-145.06;100.00;60892.56;5939092;23;20168;-92
2022/09/22 21:18:43;;;;;;;0.75;0.40;;;;;;;-145.06;100.00;60892.56;5938615;23;20432;-92
2022/09/22 21:21:22;;;;;;;0.47;0.43;;;;;;;-145.06;100.00;60892.56;5938962;23;20006;-94
2022/09/22 21:24:02;;;;;;;0.60;0.50;;;;;;;-145.06;100.00;60892.56;5938679;23;20261;-92
2022/09/22 21:26:41;;;;;;;0.40;0.30;;;;;;;-145.06;100.00;60892.56;5939009;23;20009;-94
2022/09/22 21:29:21;;;;;;;0.40;0.32;;;;;;;-145.06;100.00;60892.56;5939507;23;20005;-95
2022/09/22 21:32:00;;;;;;;0.40;0.40;;;;;;;-145.06;100.00;60892.56;5939383;23;20065;-94
2022/09/22 21:34:40;;;;;;;0.50;0.50;;;;;;;-145.06;100.00;60892.56;5938796;23;20436;-93
2022/09/22 21:37:22;;;;;;;0.52;0.35;;;;;;;-145.06;100.00;60892.56;5938605;23;20009;-92
2022/09/22 21:40:01;;;;;;;0.45;0.30;;;;;;;-145.06;100.00;60892.56;5939874;23;20040;-94
2022/09/22 21:42:43;;;;;;;0.57;0.40;;;;;;;-145.06;100.00;60892.56;5941143;23;20009;-93
2022/09/22 21:45:22;;;;;;;0.30;0.30;;;;;;;-145.06;100.00;60892.56;5939799;23;20261;-91
2022/09/22 21:48:01;;;;;;;0.63;0.47;;;;;;;-145.06;100.00;60892.56;5940318;23;20009;-93
2022/09/22 21:50:40;;;;;;;1.05;0.47;;;;;;;-145.06;100.00;60892.56;5940872;23;20469;-92
2022/09/22 21:53:19;;;;;;;0.47;0.40;;;;;;;-145.06;100.00;60892.56;5940539;23;20005;-93
2022/09/22 21:56:09;;;;;;;0.40;0.32;;;;;;;-145.06;100.00;60892.56;5940500;23;20013;-92
2022/09/22 21:58:49;;;;;;;0.40;0.38;;;;;;;-145.06;100.00;60892.56;5940764;23;20002;-93
2022/09/22 22:01:32;;;;;;;0.32;0.32;;;;;;;-145.06;100.00;60892.56;5940103;23;20321;-93
2022/09/22 22:04:16;;;;;;;0.47;0.30;;;;;;;-145.06;100.00;60892.56;5939904;23;20444;-92
2022/09/22 22:06:55;;;;;;;0.40;0.30;;;;;;;-145.06;100.00;60892.56;5939937;23;20189;-93
2022/09/22 22:09:34;;;;;;;0.77;0.40;;;;;;;-145.06;100.00;60892.56;5939962;23;20146;-93
2022/09/22 22:12:12;;;;;;;0.77;0.45;;;;;;;-145.06;100.00;60892.56;5940099;23;20265;-95
2022/09/22 22:14:51;;;;;;;0.30;0.30;;;;;;;-145.06;100.00;60892.56;5940549;23;20226;-94
2022/09/22 22:17:30;;;;;;;0.30;0.28;;;;;;;-145.06;100.00;60892.56;5940501;23;20001;-94
2022/09/22 22:20:09;;;;;;;0.50;0.32;;;;;;;-145.06;100.00;60892.56;5939847;23;20033;-93
2022/09/22 22:22:48;;;;;;;0.55;0.30;;;;;;;-145.06;100.00;60892.56;5940013;23;20009;-93